createdAt,value
2023-04-21T00:00:47.941Z,93139.94
2023-04-21T00:03:16.066Z,93141.75
2023-04-21T00:05:44.242Z,93136.91
2023-04-21T00:08:12.305Z,93136.34
2023-04-21T00:10:40.354Z,93130.97
2023-04-21T00:13:08.317Z,93128.81
2023-04-21T00:15:36.689Z,93129.59
2023-04-21T00:18:04.986Z,93138.38
2023-04-21T00:20:33.250Z,93127.44
2023-04-21T00:23:01.176Z,93125.59
2023-04-21T00:25:29.202Z,93127.69
2023-04-21T00:27:57.130Z,93124.09
2023-04-21T00:30:25.138Z,93127.72
2023-04-21T00:32:53.141Z,93133.03
2023-04-21T00:35:23.558Z,93128.19
2023-04-21T00:37:51.504Z,93132.66
2023-04-21T00:40:19.918Z,93139.66
2023-04-21T00:42:47.920Z,93139.00
2023-04-21T00:45:15.851Z,93141.38
2023-04-21T00:47:44.312Z,93132.19
2023-04-21T00:50:13.230Z,93128.50
2023-04-21T00:52:44.054Z,93126.16
2023-04-21T00:55:12.178Z,93125.34
2023-04-21T00:57:42.505Z,93131.78
2023-04-21T01:00:11.183Z,93129.47
2023-04-21T01:02:40.562Z,93125.91
2023-04-21T01:05:09.541Z,93124.22
2023-04-21T01:07:39.671Z,93130.09
2023-04-21T01:10:08.517Z,93126.59
2023-04-21T01:12:44.469Z,93125.47
2023-04-21T01:15:17.871Z,93119.59
2023-04-21T01:17:46.639Z,93123.94
2023-04-21T01:20:15.810Z,93121.44
2023-04-21T01:22:45.179Z,93125.63
2023-04-21T01:25:13.375Z,93123.09
2023-04-21T01:27:41.302Z,93123.94
2023-04-21T01:30:10.364Z,93120.16
2023-04-21T01:32:38.471Z,93121.97
2023-04-21T01:35:07.308Z,93120.38
2023-04-21T01:37:35.786Z,93116.09
2023-04-21T01:40:07.405Z,93104.41
2023-04-21T01:42:38.401Z,93115.72
2023-04-21T01:45:07.510Z,93114.13
2023-04-21T01:47:35.654Z,93121.56
2023-04-21T01:50:04.329Z,93122.00
2023-04-21T01:52:32.484Z,93114.31
2023-04-21T01:55:02.087Z,93112.06
2023-04-21T01:57:30.081Z,93115.78
2023-04-21T01:59:58.641Z,93115.78
2023-04-21T02:02:28.394Z,93113.03
2023-04-21T02:04:56.826Z,93109.88
2023-04-21T02:07:24.877Z,93115.97
2023-04-21T02:09:54.423Z,93122.63
2023-04-21T02:12:22.539Z,93121.28
2023-04-21T02:14:50.472Z,93116.47
2023-04-21T02:17:19.526Z,93116.91
2023-04-21T02:19:48.053Z,93116.22
2023-04-21T02:22:16.193Z,93116.03
2023-04-21T02:24:44.237Z,93115.88
2023-04-21T02:27:13.245Z,93115.31
2023-04-21T02:29:41.181Z,93115.53
2023-04-21T02:32:22.183Z,93100.50
2023-04-21T02:34:54.119Z,93113.59
2023-04-21T02:37:22.057Z,93116.69
2023-04-21T02:39:50.307Z,93110.44
2023-04-21T02:42:18.370Z,93110.81
2023-04-21T02:44:46.318Z,93107.91
2023-04-21T02:47:16.821Z,93108.03
2023-04-21T02:49:45.105Z,93105.38
2023-04-21T02:55:34.002Z,93109.00
2023-04-21T02:58:03.797Z,93115.81
2023-04-21T03:00:31.738Z,93107.31
2023-04-21T03:02:59.767Z,93078.25
2023-04-21T03:05:27.921Z,93104.09
2023-04-21T03:07:56.117Z,93112.34
2023-04-21T03:10:24.297Z,93110.19
2023-04-21T03:12:52.284Z,93112.53
2023-04-21T03:15:21.465Z,93112.78
2023-04-21T03:17:49.274Z,93111.59
2023-04-21T03:20:18.287Z,93124.94
2023-04-21T03:22:46.288Z,93123.84
2023-04-21T03:25:14.519Z,93122.00
2023-04-21T03:27:42.465Z,93122.38
2023-04-21T03:30:11.399Z,93129.16
2023-04-21T03:32:39.431Z,93129.63
2023-04-21T03:35:07.751Z,93119.06
2023-04-21T03:37:35.720Z,93123.31
2023-04-21T03:40:06.348Z,93126.66
2023-04-21T03:42:35.649Z,93124.47
2023-04-21T03:45:08.740Z,93129.59
2023-04-21T03:47:37.271Z,93119.50
2023-04-21T03:50:06.144Z,93134.09
2023-04-21T03:52:34.140Z,93131.91
2023-04-21T03:55:01.985Z,93126.31
2023-04-21T03:57:30.082Z,93133.53
2023-04-21T03:59:58.183Z,93131.59
2023-04-21T04:02:26.371Z,93132.66
2023-04-21T04:04:54.332Z,93136.75
2023-04-21T04:07:22.341Z,93133.81
2023-04-21T04:09:50.255Z,93144.84
2023-04-21T04:12:18.126Z,93146.13
2023-04-21T04:14:45.953Z,93150.97
2023-04-21T04:17:13.828Z,93151.00
2023-04-21T04:19:41.849Z,93151.69
2023-04-21T04:22:09.814Z,93166.94
2023-04-21T04:24:37.792Z,93167.72
2023-04-21T04:27:07.179Z,93164.72
2023-04-21T04:29:35.227Z,93161.66
2023-04-21T04:32:04.414Z,93162.09
2023-04-21T04:34:32.961Z,93161.41
2023-04-21T04:37:02.656Z,93162.03
2023-04-21T04:39:32.375Z,93159.03
2023-04-21T04:42:01.595Z,93172.06
2023-04-21T04:44:29.698Z,93170.22
2023-04-21T04:46:57.883Z,93173.09
2023-04-21T04:49:26.268Z,93146.66
2023-04-21T04:51:54.341Z,93160.59
2023-04-21T04:54:22.457Z,93156.00
2023-04-21T04:56:50.681Z,93162.94
2023-04-21T04:59:19.259Z,93162.81
2023-04-21T05:01:47.125Z,93160.94
2023-04-21T05:04:17.971Z,93151.81
2023-04-21T05:06:46.405Z,93146.75
2023-04-21T05:09:14.315Z,93152.00
2023-04-21T05:11:42.616Z,93147.06
2023-04-21T05:14:10.638Z,93157.47
2023-04-21T05:16:38.657Z,93163.38
2023-04-21T05:19:06.762Z,93156.69
2023-04-21T05:21:34.925Z,93158.63
2023-04-21T05:24:03.142Z,93157.13
2023-04-21T05:26:31.812Z,93145.44
2023-04-21T05:28:59.822Z,93146.19
2023-04-21T05:31:27.821Z,93140.78
2023-04-21T05:33:55.769Z,93150.88
2023-04-21T05:36:25.210Z,93147.50
2023-04-21T05:38:54.219Z,93147.72
2023-04-21T05:41:22.868Z,93146.56
2023-04-21T05:43:50.940Z,93148.06
2023-04-21T05:46:19.073Z,93143.41
2023-04-21T05:48:47.164Z,93144.53
2023-04-21T05:51:15.910Z,93138.88
2023-04-21T05:53:45.783Z,93138.59
2023-04-21T05:56:14.939Z,93137.81
2023-04-21T05:58:43.067Z,93146.34
2023-04-21T06:01:11.535Z,93140.22
2023-04-21T06:03:39.689Z,93129.78
2023-04-21T06:06:11.667Z,93135.66
2023-04-21T06:08:39.731Z,93128.84
2023-04-21T06:11:07.874Z,93129.56
2023-04-21T06:13:38.066Z,93122.78
2023-04-21T06:16:06.894Z,93124.31
2023-04-21T06:18:35.024Z,93125.59
2023-04-21T06:21:03.091Z,93124.31
2023-04-21T06:23:31.079Z,93132.19
2023-04-21T06:26:00.990Z,93131.72
2023-04-21T06:28:29.185Z,93129.44
2023-04-21T06:30:57.128Z,93124.19
2023-04-21T06:33:25.255Z,93115.47
2023-04-21T06:35:54.225Z,93120.38
2023-04-21T06:38:22.438Z,93126.31
2023-04-21T06:40:51.174Z,93116.81
2023-04-21T06:48:04.894Z,93115.91
2023-04-21T06:50:32.905Z,93100.16
2023-04-21T06:53:00.836Z,93112.72
2023-04-21T06:55:28.843Z,93110.47
2023-04-21T06:57:56.703Z,93079.44
2023-04-21T07:00:24.853Z,93098.31
2023-04-21T07:02:52.984Z,93093.81
2023-04-21T07:05:50.848Z,93099.84
2023-04-21T07:08:20.148Z,93109.91
2023-04-21T07:10:48.021Z,93107.72
2023-04-21T07:13:16.367Z,93105.63
2023-04-21T07:15:44.330Z,93106.22
2023-04-21T07:18:12.479Z,93110.47
2023-04-21T07:20:40.538Z,93112.75
2023-04-21T07:23:08.435Z,93110.03
2023-04-21T07:25:36.921Z,93113.84
2023-04-21T07:28:04.972Z,93117.84
2023-04-21T07:30:32.865Z,93109.16
2023-04-21T07:33:00.986Z,93107.91
2023-04-21T07:35:29.098Z,93114.19
2023-04-21T07:37:57.084Z,93119.00
2023-04-21T07:40:25.091Z,93112.03
2023-04-21T07:42:53.344Z,93116.34
2023-04-21T07:45:21.281Z,93098.09
2023-04-21T07:47:49.151Z,93128.25
2023-04-21T07:50:17.164Z,93121.84
2023-04-21T07:52:45.143Z,93122.13
2023-04-21T07:55:13.250Z,93126.34
2023-04-21T07:57:41.403Z,93122.25
2023-04-21T08:00:10.544Z,93119.50
2023-04-21T08:02:42.305Z,93124.88
2023-04-21T08:05:10.679Z,93127.66
2023-04-21T08:07:39.790Z,93125.34
2023-04-21T08:10:08.573Z,93126.97
2023-04-21T08:12:36.621Z,93129.44
2023-04-21T08:15:08.526Z,93131.22
2023-04-21T08:17:36.861Z,93118.59
2023-04-21T08:20:08.168Z,93123.63
2023-04-21T08:22:36.862Z,93123.78
2023-04-21T08:25:06.529Z,93109.75
2023-04-21T08:27:34.600Z,93117.34
2023-04-21T08:30:02.729Z,93119.19
2023-04-21T08:32:31.013Z,93109.91
2023-04-21T08:34:59.012Z,93116.03
2023-04-21T08:37:27.088Z,93101.25
2023-04-21T08:39:55.789Z,93115.28
2023-04-21T08:42:24.017Z,93114.25
2023-04-21T08:44:51.985Z,93107.53
2023-04-21T08:47:22.451Z,93112.59
2023-04-21T08:49:52.383Z,93116.25
2023-04-21T08:52:20.457Z,93107.34
2023-04-21T08:54:52.250Z,93106.84
2023-04-21T08:57:20.245Z,93103.31
2023-04-21T08:59:48.427Z,93099.16
2023-04-21T09:02:19.243Z,93089.69
2023-04-21T09:04:50.742Z,93088.66
2023-04-21T09:07:39.720Z,93091.78
2023-04-21T09:10:08.361Z,93094.66
2023-04-21T09:12:39.059Z,93094.53
2023-04-21T09:15:11.058Z,93094.56
2023-04-21T09:17:39.996Z,93093.88
2023-04-21T09:20:16.022Z,93089.53
2023-04-21T09:22:44.790Z,93088.97
2023-04-21T09:25:18.124Z,93083.19
2023-04-21T09:27:47.382Z,93075.63
2023-04-21T09:30:20.159Z,93073.66
2023-04-21T09:32:48.420Z,93065.25
2023-04-21T09:35:16.482Z,93062.81
2023-04-21T09:37:44.888Z,93064.06
2023-04-21T09:40:15.201Z,93075.16
2023-04-21T09:42:44.872Z,93074.91
2023-04-21T09:47:53.604Z,93073.16
2023-04-21T09:50:51.253Z,93065.19
2023-04-21T09:53:15.549Z,93059.22
2023-04-21T09:55:47.670Z,93068.13
2023-04-21T09:58:24.302Z,93068.00
2023-04-21T10:00:53.932Z,93069.25
2023-04-21T10:03:27.439Z,93066.28
2023-04-21T10:05:56.503Z,93064.81
2023-04-21T10:08:24.624Z,93050.91
2023-04-21T10:10:54.707Z,93053.22
2023-04-21T10:13:23.257Z,93063.75
2023-04-21T10:16:03.034Z,93057.75
2023-04-21T10:18:31.496Z,93059.06
2023-04-21T10:21:06.420Z,93055.50
2023-04-21T10:23:44.191Z,93053.47
2023-04-21T10:26:27.322Z,93048.69
2023-04-21T10:29:01.999Z,93048.03
2023-04-21T10:31:45.051Z,93046.97
2023-04-21T10:34:13.729Z,93046.50
2023-04-21T10:37:12.888Z,93040.56
2023-04-21T10:39:52.786Z,93025.94
2023-04-21T10:42:29.726Z,93039.97
2023-04-21T10:44:57.957Z,93033.69
2023-04-21T10:49:56.454Z,93025.31
2023-04-21T10:52:33.757Z,93035.66
2023-04-21T10:55:01.900Z,93027.50
2023-04-21T10:57:35.213Z,93034.00
2023-04-21T11:00:09.213Z,93025.72
2023-04-21T11:02:39.754Z,93030.34
2023-04-21T11:05:10.956Z,93035.19
2023-04-21T11:07:39.057Z,93029.31
2023-04-21T11:10:08.821Z,93031.22
2023-04-21T11:12:46.023Z,93031.09
2023-04-21T11:15:16.044Z,93038.19
2023-04-21T11:17:47.471Z,93042.09
2023-04-21T11:20:16.069Z,93042.31
2023-04-21T11:22:44.228Z,93019.47
2023-04-21T11:25:18.943Z,93031.06
2023-04-21T11:27:57.559Z,93034.31
2023-04-21T11:30:35.174Z,93040.03
2023-04-21T11:33:03.619Z,93040.38
2023-04-21T11:35:32.522Z,93029.88
2023-04-21T11:38:06.093Z,93039.31
2023-04-21T11:40:48.200Z,93047.13
2023-04-21T11:43:16.677Z,93040.53
2023-04-21T11:45:49.868Z,93027.06
2023-04-21T11:48:19.748Z,93032.03
2023-04-21T11:50:49.790Z,93022.66
2023-04-21T11:53:18.214Z,93024.31
2023-04-21T11:55:46.310Z,93027.72
2023-04-21T11:58:16.526Z,93020.91
2023-04-21T12:00:46.519Z,93028.84
2023-04-21T12:03:15.005Z,93034.56
2023-04-21T12:05:43.113Z,93033.59
2023-04-21T12:08:16.556Z,93028.66
2023-04-21T12:10:46.380Z,93032.31
2023-04-21T12:13:22.395Z,93037.84
2023-04-21T12:15:50.730Z,93032.13
2023-04-21T12:18:18.746Z,93038.03
2023-04-21T12:20:52.437Z,93040.41
2023-04-21T12:23:21.207Z,93050.97
2023-04-21T12:25:49.067Z,93062.63
2023-04-21T12:28:18.410Z,93066.66
2023-04-21T12:30:46.356Z,93055.19
2023-04-21T12:33:14.601Z,93065.63
2023-04-21T12:35:42.617Z,93066.16
2023-04-21T12:38:10.735Z,93068.97
2023-04-21T12:40:38.845Z,93063.16
2023-04-21T12:43:07.270Z,93063.94
2023-04-21T12:45:37.098Z,93066.78
2023-04-21T12:48:05.724Z,93066.34
2023-04-21T12:50:33.730Z,93072.13
2023-04-21T12:53:01.840Z,93076.00
2023-04-21T12:55:29.896Z,93069.44
2023-04-21T12:57:58.257Z,93063.06
2023-04-21T13:00:26.401Z,93062.16
2023-04-21T13:02:54.518Z,93068.53
2023-04-21T13:05:22.665Z,93065.94
2023-04-21T13:07:50.953Z,93054.97
2023-04-21T13:10:19.388Z,93045.69
2023-04-21T13:12:47.633Z,93060.19
2023-04-21T13:15:16.127Z,93040.94
2023-04-21T13:17:44.274Z,93059.66
2023-04-21T13:20:12.774Z,93054.41
2023-04-21T13:22:41.388Z,93051.34
2023-04-21T13:25:10.173Z,93052.16
2023-04-21T13:27:40.190Z,93046.94
2023-04-21T13:30:11.170Z,93046.31
2023-04-21T13:32:40.353Z,93046.72
2023-04-21T13:35:11.006Z,93048.41
2023-04-21T13:37:40.201Z,93050.50
2023-04-21T13:40:10.288Z,93042.75
2023-04-21T13:42:39.864Z,93047.41
2023-04-21T13:45:08.483Z,93027.88
2023-04-21T13:47:36.352Z,93028.38
2023-04-21T13:50:05.431Z,93030.28
2023-04-21T13:52:35.193Z,93036.59
2023-04-21T13:55:05.488Z,93031.06
2023-04-21T13:57:33.660Z,93030.47
2023-04-21T14:00:02.114Z,93022.88
2023-04-21T14:02:33.237Z,93034.75
2023-04-21T14:05:02.203Z,93038.56
2023-04-21T14:07:30.857Z,93032.16
2023-04-21T14:09:58.885Z,93030.09
2023-04-21T14:12:26.987Z,93016.09
2023-04-21T14:14:55.380Z,93015.88
2023-04-21T14:17:23.646Z,93020.47
2023-04-21T14:19:53.045Z,93014.19
2023-04-21T14:22:23.469Z,93006.72
2023-04-21T14:24:51.462Z,93003.59
2023-04-21T14:27:20.163Z,93007.69
2023-04-21T14:29:48.365Z,93014.91
2023-04-21T14:32:18.842Z,93019.69
2023-04-21T14:34:47.540Z,93010.63
2023-04-21T14:37:15.877Z,93008.97
2023-04-21T14:39:44.207Z,93004.75
2023-04-21T14:42:12.847Z,93008.19
2023-04-21T14:44:40.993Z,92995.81
2023-04-21T14:47:10.658Z,93002.63
2023-04-21T14:49:39.807Z,93005.63
2023-04-21T14:52:08.085Z,93001.63
2023-04-21T14:54:36.480Z,92999.50
2023-04-21T14:57:18.742Z,92992.63
2023-04-21T14:59:52.567Z,92995.38
2023-04-21T15:02:22.034Z,93003.50
2023-04-21T15:04:50.976Z,92995.44
2023-04-21T15:07:24.337Z,92984.97
2023-04-21T15:09:55.681Z,92990.53
2023-04-21T15:12:24.018Z,92994.63
2023-04-21T15:14:52.754Z,92993.53
2023-04-21T15:17:20.821Z,92992.84
2023-04-21T15:19:48.968Z,92998.28
2023-04-21T15:22:17.458Z,93000.81
2023-04-21T15:24:46.381Z,92994.81
2023-04-21T15:27:14.973Z,92994.81
2023-04-21T15:29:43.047Z,93001.09
2023-04-21T15:32:11.139Z,93010.25
2023-04-21T15:34:39.205Z,93006.78
2023-04-21T15:37:07.224Z,93004.47
2023-04-21T15:39:35.460Z,93007.06
2023-04-21T15:42:05.290Z,93006.47
2023-04-21T15:44:34.502Z,93013.25
2023-04-21T15:47:03.092Z,93013.06
2023-04-21T15:49:31.772Z,93008.16
2023-04-21T15:52:00.251Z,93002.09
2023-04-21T15:54:28.531Z,93005.75
2023-04-21T15:56:58.066Z,93007.44
2023-04-21T15:59:26.882Z,93010.19
2023-04-21T16:01:59.384Z,93015.66
2023-04-21T16:04:28.662Z,93015.84
2023-04-21T16:06:57.478Z,93011.09
2023-04-21T16:09:26.943Z,93018.25
2023-04-21T16:11:55.560Z,93014.97
2023-04-21T16:14:24.081Z,93018.38
2023-04-21T16:16:52.086Z,93014.91
2023-04-21T16:19:20.278Z,93016.50
2023-04-21T16:21:48.554Z,93019.31
2023-04-21T16:24:16.890Z,93007.78
2023-04-21T16:26:45.148Z,93014.03
2023-04-21T16:29:13.080Z,93012.84
2023-04-21T16:31:41.413Z,93019.91
2023-04-21T16:34:10.166Z,93025.28
2023-04-21T16:36:38.593Z,93010.25
2023-04-21T16:39:06.885Z,93027.56
2023-04-21T16:41:37.440Z,93025.25
2023-04-21T16:44:05.791Z,93022.75
2023-04-21T16:46:34.230Z,93013.56
2023-04-21T16:49:03.007Z,93025.41
2023-04-21T16:51:32.039Z,93041.03
2023-04-21T16:53:59.886Z,93003.19
2023-04-21T16:56:28.093Z,93036.16
2023-04-21T16:58:56.855Z,93046.69
2023-04-21T17:01:25.627Z,93037.25
2023-04-21T17:03:55.189Z,93041.19
2023-04-21T17:06:24.252Z,93050.09
2023-04-21T17:08:59.677Z,93053.56
2023-04-21T17:11:29.146Z,93051.03
2023-04-21T17:13:57.684Z,93047.91
2023-04-21T17:16:26.229Z,93043.47
2023-04-21T17:18:55.206Z,93048.97
2023-04-21T17:21:23.422Z,93060.13
2023-04-21T17:23:52.351Z,93058.94
2023-04-21T17:26:21.951Z,93066.03
2023-04-21T17:28:50.641Z,93072.06
2023-04-21T17:31:19.404Z,93069.53
2023-04-21T17:33:48.005Z,93075.53
2023-04-21T17:36:17.213Z,93070.50
2023-04-21T17:38:45.701Z,93067.34
2023-04-21T17:41:14.220Z,93073.75
2023-04-21T17:43:42.617Z,93079.22
2023-04-21T17:46:11.621Z,93077.13
2023-04-21T17:48:40.185Z,93071.06
2023-04-21T17:51:09.672Z,93086.41
2023-04-21T17:53:38.633Z,93094.22
2023-04-21T17:56:08.617Z,93100.22
2023-04-21T17:58:37.342Z,93102.31
2023-04-21T18:01:05.849Z,93106.38
2023-04-21T18:03:36.551Z,93115.53
2023-04-21T18:06:05.801Z,93115.81
2023-04-21T18:08:34.220Z,93115.03
2023-04-21T18:11:02.550Z,93116.66
2023-04-21T18:13:31.095Z,93118.84
2023-04-21T18:15:59.573Z,93118.59
2023-04-21T18:18:29.272Z,93124.47
2023-04-21T18:20:59.078Z,93127.69
2023-04-21T18:23:27.678Z,93133.00
2023-04-21T18:25:56.615Z,93120.19
2023-04-21T18:28:24.764Z,93141.53
2023-04-21T18:30:54.080Z,93145.00
2023-04-21T18:33:22.431Z,93151.09
2023-04-21T18:35:50.994Z,93154.81
2023-04-21T18:38:22.084Z,93158.81
2023-04-21T18:40:50.464Z,93162.84
2023-04-21T18:43:19.761Z,93163.63
2023-04-21T18:45:48.270Z,93166.81
2023-04-21T18:48:16.811Z,93181.19
2023-04-21T18:50:45.150Z,93182.44
2023-04-21T18:53:13.463Z,93174.06
2023-04-21T18:55:41.960Z,93178.38
2023-04-21T18:58:10.638Z,93175.44
2023-04-21T19:00:39.438Z,93193.28
2023-04-21T19:03:08.975Z,93194.53
2023-04-21T19:05:39.735Z,93190.00
2023-04-21T19:08:12.487Z,93190.78
2023-04-21T19:10:41.516Z,93179.50
2023-04-21T19:13:09.642Z,93184.06
2023-04-21T19:15:38.908Z,93192.03
2023-04-21T19:18:08.027Z,93174.28
2023-04-21T19:20:37.869Z,93192.38
2023-04-21T19:23:06.565Z,93200.38
2023-04-21T19:25:36.778Z,93203.06
2023-04-21T19:28:06.852Z,93203.03
2023-04-21T19:30:35.459Z,93196.41
2023-04-21T19:33:05.646Z,93201.94
2023-04-21T19:35:34.350Z,93207.50
2023-04-21T19:38:03.480Z,93207.41
2023-04-21T19:40:32.110Z,93215.38
2023-04-21T19:43:01.122Z,93212.38
2023-04-21T19:45:29.459Z,93208.13
2023-04-21T19:47:57.813Z,93196.38
2023-04-21T19:50:27.225Z,93208.31
2023-04-21T19:52:55.624Z,93205.31
2023-04-21T19:55:24.605Z,93204.44
2023-04-21T19:57:53.041Z,93200.38
2023-04-21T20:00:21.869Z,93206.06
2023-04-21T20:02:50.834Z,93188.66
2023-04-21T20:05:20.138Z,93201.97
2023-04-21T20:07:49.252Z,93205.69
2023-04-21T20:10:17.634Z,93205.38
2023-04-21T20:12:46.330Z,93212.00
2023-04-21T20:15:14.979Z,93210.97
2023-04-21T20:17:47.658Z,93208.53
2023-04-21T20:20:16.767Z,93210.59
2023-04-21T20:22:45.105Z,93212.63
2023-04-21T20:25:13.898Z,93217.69
2023-04-21T20:27:42.169Z,93162.81
2023-04-21T20:30:11.589Z,93222.47
2023-04-21T20:32:40.090Z,93219.28
2023-04-21T20:35:09.011Z,93225.34
2023-04-21T20:37:37.885Z,93221.31
2023-04-21T20:40:09.046Z,93224.00
2023-04-21T20:42:37.757Z,93223.41
2023-04-21T20:45:07.216Z,93228.34
2023-04-21T20:47:35.779Z,93224.63
2023-04-21T20:50:04.981Z,93230.16
2023-04-21T20:52:33.064Z,93234.41
2023-04-21T20:55:01.588Z,93222.94
2023-04-21T20:57:29.818Z,93214.81
2023-04-21T20:59:58.243Z,93219.50
2023-04-21T21:02:26.683Z,93229.06
2023-04-21T21:04:54.712Z,93225.63
2023-04-21T21:07:22.882Z,93234.94
2023-04-21T21:09:50.922Z,93226.00
2023-04-21T21:12:18.909Z,93239.63
2023-04-21T21:14:46.997Z,93219.25
2023-04-21T21:17:16.794Z,93242.72
2023-04-21T21:19:44.769Z,93233.34
2023-04-21T21:22:12.960Z,93244.84
2023-04-21T21:24:40.922Z,93233.75
2023-04-21T21:27:08.923Z,93228.50
2023-04-21T21:29:37.170Z,93244.81
2023-04-21T21:32:05.703Z,93241.63
2023-04-21T21:34:33.722Z,93244.44
2023-04-21T21:37:01.772Z,93246.28
2023-04-21T21:39:29.773Z,93249.44
2023-04-21T21:41:57.689Z,93251.69
2023-04-21T21:44:25.743Z,93257.06
2023-04-21T21:46:53.930Z,93251.53
2023-04-21T21:49:22.220Z,93247.41
2023-04-21T21:51:50.713Z,93254.97
2023-04-21T21:54:18.769Z,93227.06
2023-04-21T21:56:47.820Z,93246.13
2023-04-21T21:59:15.700Z,93241.94
2023-04-21T22:01:43.615Z,93243.41
2023-04-21T22:04:11.880Z,93247.63
2023-04-21T22:06:40.152Z,93253.59
2023-04-21T22:09:09.241Z,93254.16
2023-04-21T22:11:37.407Z,93240.66
2023-04-21T22:14:19.000Z,93252.25
2023-04-21T22:16:50.860Z,93259.84
2023-04-21T22:19:21.916Z,93259.44
2023-04-21T22:21:49.984Z,93263.34
2023-04-21T22:24:18.758Z,93277.78
2023-04-21T22:26:47.936Z,93268.91
2023-04-21T22:29:15.671Z,93264.19
2023-04-21T22:31:43.914Z,93264.53
2023-04-21T22:34:15.222Z,93270.34
2023-04-21T22:36:43.680Z,93278.22
2023-04-21T22:39:12.195Z,93269.50
2023-04-21T22:41:40.009Z,93272.47
2023-04-21T22:44:08.071Z,93269.75
2023-04-21T22:46:36.696Z,93265.25
2023-04-21T22:49:05.346Z,93280.34
2023-04-21T22:51:33.275Z,93266.34
2023-04-21T22:54:01.614Z,93265.66
2023-04-21T22:56:31.157Z,93226.00
2023-04-21T22:58:59.644Z,93254.84
2023-04-21T23:01:28.159Z,93254.19
2023-04-21T23:03:56.804Z,93254.28
2023-04-21T23:06:24.794Z,93261.59
2023-04-21T23:08:53.260Z,93256.50
2023-04-21T23:11:21.185Z,93242.50
2023-04-21T23:13:49.131Z,93261.03
2023-04-21T23:16:17.317Z,93258.88
2023-04-21T23:18:45.185Z,93249.91
2023-04-21T23:21:13.154Z,93251.94
2023-04-21T23:23:41.334Z,93255.22
2023-04-21T23:26:09.336Z,93259.03
2023-04-21T23:28:37.244Z,93252.09
2023-04-21T23:31:05.703Z,93254.41
2023-04-21T23:33:33.706Z,93253.78
2023-04-21T23:36:03.621Z,93258.06
2023-04-21T23:38:31.684Z,93259.72
2023-04-21T23:40:59.614Z,93259.28
2023-04-21T23:43:27.676Z,93265.59
2023-04-21T23:45:55.642Z,93272.97
2023-04-21T23:48:23.714Z,93280.00
2023-04-21T23:50:51.993Z,93277.25
2023-04-21T23:53:19.956Z,93276.59
